sensor_id;sensor_type;location;lat;lon;timestamp;temperature;humidity
24144;DHT22;12307;50.828;6.080;2023-11-21T00:01:36;18.60;68.50
24144;DHT22;12307;50.828;6.080;2023-11-21T00:04:04;18.60;68.50
24144;DHT22;12307;50.828;6.080;2023-11-21T00:06:29;18.60;69.40
24144;DHT22;12307;50.828;6.080;2023-11-21T00:08:55;18.60;68.50
24144;DHT22;12307;50.828;6.080;2023-11-21T00:11:21;18.60;68.50
24144;DHT22;12307;50.828;6.080;2023-11-21T00:13:47;18.60;68.60
24144;DHT22;12307;50.828;6.080;2023-11-21T00:16:13;18.60;68.50
24144;DHT22;12307;50.828;6.080;2023-11-21T00:18:38;18.60;68.60
24144;DHT22;12307;50.828;6.080;2023-11-21T00:21:06;18.60;68.50
24144;DHT22;12307;50.828;6.080;2023-11-21T00:23:32;18.60;68.60
24144;DHT22;12307;50.828;6.080;2023-11-21T00:25:57;18.60;68.50
24144;DHT22;12307;50.828;6.080;2023-11-21T00:28:23;18.60;68.60
24144;DHT22;12307;50.828;6.080;2023-11-21T00:30:50;18.60;68.60
24144;DHT22;12307;50.828;6.080;2023-11-21T00:33:16;18.60;68.60
24144;DHT22;12307;50.828;6.080;2023-11-21T00:35:42;18.60;68.60
24144;DHT22;12307;50.828;6.080;2023-11-21T00:38:09;18.60;68.60
24144;DHT22;12307;50.828;6.080;2023-11-21T00:40:35;18.60;68.60
24144;DHT22;12307;50.828;6.080;2023-11-21T00:43:00;18.60;68.60
24144;DHT22;12307;50.828;6.080;2023-11-21T00:45:26;18.50;68.50
24144;DHT22;12307;50.828;6.080;2023-11-21T00:47:52;18.60;68.60
24144;DHT22;12307;50.828;6.080;2023-11-21T00:50:18;18.50;68.60
24144;DHT22;12307;50.828;6.080;2023-11-21T00:52:44;18.60;68.60
24144;DHT22;12307;50.828;6.080;2023-11-21T00:55:12;18.50;68.60
24144;DHT22;12307;50.828;6.080;2023-11-21T00:57:38;18.50;68.60
24144;DHT22;12307;50.828;6.080;2023-11-21T01:00:05;18.50;68.60
24144;DHT22;12307;50.828;6.080;2023-11-21T01:02:42;18.60;68.60
24144;DHT22;12307;50.828;6.080;2023-11-21T01:05:09;18.50;68.60
24144;DHT22;12307;50.828;6.080;2023-11-21T01:07:34;18.50;68.60
24144;DHT22;12307;50.828;6.080;2023-11-21T01:10:02;18.60;68.70
24144;DHT22;12307;50.828;6.080;2023-11-21T01:12:29;18.50;68.60
24144;DHT22;12307;50.828;6.080;2023-11-21T01:14:55;18.50;68.60
24144;DHT22;12307;50.828;6.080;2023-11-21T01:17:20;18.50;68.70
24144;DHT22;12307;50.828;6.080;2023-11-21T01:19:48;18.50;68.70
24144;DHT22;12307;50.828;6.080;2023-11-21T01:22:14;18.50;68.70
24144;DHT22;12307;50.828;6.080;2023-11-21T01:24:41;18.50;68.60
24144;DHT22;12307;50.828;6.080;2023-11-21T01:27:06;18.50;68.60
24144;DHT22;12307;50.828;6.080;2023-11-21T01:29:33;18.50;68.60
24144;DHT22;12307;50.828;6.080;2023-11-21T01:32:01;18.50;68.60
24144;DHT22;12307;50.828;6.080;2023-11-21T01:34:27;18.50;68.70
24144;DHT22;12307;50.828;6.080;2023-11-21T01:36:53;18.50;68.70
24144;DHT22;12307;50.828;6.080;2023-11-21T01:39:19;18.50;68.70
24144;DHT22;12307;50.828;6.080;2023-11-21T01:41:49;18.50;68.70
24144;DHT22;12307;50.828;6.080;2023-11-21T01:44:14;18.50;68.70
24144;DHT22;12307;50.828;6.080;2023-11-21T01:46:43;18.50;68.70
24144;DHT22;12307;50.828;6.080;2023-11-21T01:49:10;18.50;68.70
24144;DHT22;12307;50.828;6.080;2023-11-21T01:51:39;18.50;68.80
24144;DHT22;12307;50.828;6.080;2023-11-21T01:54:05;18.50;68.70
24144;DHT22;12307;50.828;6.080;2023-11-21T01:56:31;18.50;68.70
24144;DHT22;12307;50.828;6.080;2023-11-21T01:58:57;18.50;68.70
24144;DHT22;12307;50.828;6.080;2023-11-21T02:01:23;18.50;68.70
24144;DHT22;12307;50.828;6.080;2023-11-21T02:03:50;18.50;68.70
24144;DHT22;12307;50.828;6.080;2023-11-21T02:06:16;18.50;68.70
24144;DHT22;12307;50.828;6.080;2023-11-21T02:08:41;18.50;68.70
24144;DHT22;12307;50.828;6.080;2023-11-21T02:11:09;18.50;68.70
24144;DHT22;12307;50.828;6.080;2023-11-21T02:13:38;18.50;68.70
24144;DHT22;12307;50.828;6.080;2023-11-21T02:16:04;18.50;68.70
24144;DHT22;12307;50.828;6.080;2023-11-21T02:18:31;18.50;68.70
24144;DHT22;12307;50.828;6.080;2023-11-21T02:20:58;18.50;68.70
24144;DHT22;12307;50.828;6.080;2023-11-21T02:23:25;18.50;68.70
24144;DHT22;12307;50.828;6.080;2023-11-21T02:25:54;18.50;68.70
24144;DHT22;12307;50.828;6.080;2023-11-21T02:28:20;18.40;68.70
24144;DHT22;12307;50.828;6.080;2023-11-21T02:30:51;18.50;68.70
24144;DHT22;12307;50.828;6.080;2023-11-21T02:33:21;18.50;68.70
24144;DHT22;12307;50.828;6.080;2023-11-21T02:35:46;18.50;68.70
24144;DHT22;12307;50.828;6.080;2023-11-21T02:38:12;18.50;68.70
24144;DHT22;12307;50.828;6.080;2023-11-21T02:40:39;18.40;68.60
24144;DHT22;12307;50.828;6.080;2023-11-21T02:43:05;18.50;68.70
24144;DHT22;12307;50.828;6.080;2023-11-21T02:45:31;18.50;68.70
24144;DHT22;12307;50.828;6.080;2023-11-21T02:47:57;18.50;68.70
24144;DHT22;12307;50.828;6.080;2023-11-21T02:50:23;18.50;68.70
24144;DHT22;12307;50.828;6.080;2023-11-21T02:52:49;18.50;68.80
24144;DHT22;12307;50.828;6.080;2023-11-21T02:55:14;18.50;68.80
24144;DHT22;12307;50.828;6.080;2023-11-21T02:57:42;18.50;68.70
24144;DHT22;12307;50.828;6.080;2023-11-21T03:00:08;18.50;68.70
24144;DHT22;12307;50.828;6.080;2023-11-21T03:02:35;18.50;68.70
24144;DHT22;12307;50.828;6.080;2023-11-21T03:05:05;18.40;68.60
24144;DHT22;12307;50.828;6.080;2023-11-21T03:07:31;18.40;68.70
24144;DHT22;12307;50.828;6.080;2023-11-21T03:09:56;18.40;68.60
24144;DHT22;12307;50.828;6.080;2023-11-21T03:12:23;18.40;68.60
24144;DHT22;12307;50.828;6.080;2023-11-21T03:14:50;18.50;68.80
24144;DHT22;12307;50.828;6.080;2023-11-21T03:17:15;18.40;68.60
24144;DHT22;12307;50.828;6.080;2023-11-21T03:19:41;18.50;68.70
24144;DHT22;12307;50.828;6.080;2023-11-21T03:22:07;18.50;68.70
24144;DHT22;12307;50.828;6.080;2023-11-21T03:24:34;18.50;68.80
24144;DHT22;12307;50.828;6.080;2023-11-21T03:26:59;18.50;68.70
24144;DHT22;12307;50.828;6.080;2023-11-21T03:29:25;18.40;68.70
24144;DHT22;12307;50.828;6.080;2023-11-21T03:31:53;18.50;68.70
24144;DHT22;12307;50.828;6.080;2023-11-21T03:34:24;18.40;68.60
24144;DHT22;12307;50.828;6.080;2023-11-21T03:36:50;18.40;68.60
24144;DHT22;12307;50.828;6.080;2023-11-21T03:39:16;18.40;68.60
24144;DHT22;12307;50.828;6.080;2023-11-21T03:41:42;18.50;68.70
24144;DHT22;12307;50.828;6.080;2023-11-21T03:44:07;18.40;68.60
24144;DHT22;12307;50.828;6.080;2023-11-21T03:46:36;18.50;68.70
24144;DHT22;12307;50.828;6.080;2023-11-21T03:49:03;18.40;68.60
24144;DHT22;12307;50.828;6.080;2023-11-21T03:51:30;18.40;68.60
24144;DHT22;12307;50.828;6.080;2023-11-21T03:53:55;18.40;68.70
24144;DHT22;12307;50.828;6.080;2023-11-21T03:56:21;18.40;68.70
24144;DHT22;12307;50.828;6.080;2023-11-21T03:58:47;18.40;69.50
24144;DHT22;12307;50.828;6.080;2023-11-21T04:01:19;18.40;68.70
24144;DHT22;12307;50.828;6.080;2023-11-21T04:03:46;18.40;68.60
24144;DHT22;12307;50.828;6.080;2023-11-21T04:06:13;18.40;68.60
24144;DHT22;12307;50.828;6.080;2023-11-21T04:08:39;18.40;68.70
24144;DHT22;12307;50.828;6.080;2023-11-21T04:11:05;18.40;68.60
24144;DHT22;12307;50.828;6.080;2023-11-21T04:13:30;18.40;68.60
24144;DHT22;12307;50.828;6.080;2023-11-21T04:15:56;18.40;68.60
24144;DHT22;12307;50.828;6.080;2023-11-21T04:18:22;18.40;68.60
24144;DHT22;12307;50.828;6.080;2023-11-21T04:20:48;18.40;68.60
24144;DHT22;12307;50.828;6.080;2023-11-21T04:23:16;18.40;68.60
24144;DHT22;12307;50.828;6.080;2023-11-21T04:25:41;18.40;68.60
24144;DHT22;12307;50.828;6.080;2023-11-21T04:28:07;18.40;68.80
24144;DHT22;12307;50.828;6.080;2023-11-21T04:30:33;18.40;68.60
24144;DHT22;12307;50.828;6.080;2023-11-21T04:32:58;18.40;68.60
24144;DHT22;12307;50.828;6.080;2023-11-21T04:35:24;18.40;68.60
24144;DHT22;12307;50.828;6.080;2023-11-21T04:37:50;18.40;68.70
24144;DHT22;12307;50.828;6.080;2023-11-21T04:40:17;18.40;68.60
24144;DHT22;12307;50.828;6.080;2023-11-21T04:42:43;18.40;68.60
24144;DHT22;12307;50.828;6.080;2023-11-21T04:45:09;18.40;68.60
24144;DHT22;12307;50.828;6.080;2023-11-21T04:47:36;18.40;68.60
24144;DHT22;12307;50.828;6.080;2023-11-21T04:50:02;18.40;68.60
24144;DHT22;12307;50.828;6.080;2023-11-21T04:52:29;18.40;68.60
24144;DHT22;12307;50.828;6.080;2023-11-21T04:54:54;18.40;68.60
24144;DHT22;12307;50.828;6.080;2023-11-21T04:57:22;18.40;68.60
24144;DHT22;12307;50.828;6.080;2023-11-21T04:59:48;18.40;68.70
24144;DHT22;12307;50.828;6.080;2023-11-21T05:02:13;18.40;68.60
24144;DHT22;12307;50.828;6.080;2023-11-21T05:04:39;18.40;68.60
24144;DHT22;12307;50.828;6.080;2023-11-21T05:07:05;18.40;68.60
24144;DHT22;12307;50.828;6.080;2023-11-21T05:09:31;18.40;68.70
24144;DHT22;12307;50.828;6.080;2023-11-21T05:11:57;18.40;68.60
24144;DHT22;12307;50.828;6.080;2023-11-21T05:14:25;18.40;68.60
24144;DHT22;12307;50.828;6.080;2023-11-21T05:16:50;18.40;68.70
24144;DHT22;12307;50.828;6.080;2023-11-21T05:19:17;18.40;68.60
24144;DHT22;12307;50.828;6.080;2023-11-21T05:21:43;18.40;68.70
24144;DHT22;12307;50.828;6.080;2023-11-21T05:24:09;18.40;68.60
24144;DHT22;12307;50.828;6.080;2023-11-21T05:26:35;18.40;68.60
24144;DHT22;12307;50.828;6.080;2023-11-21T05:29:01;18.40;68.60
24144;DHT22;12307;50.828;6.080;2023-11-21T05:31:28;18.40;68.60
24144;DHT22;12307;50.828;6.080;2023-11-21T05:33:53;18.40;68.60
24144;DHT22;12307;50.828;6.080;2023-11-21T05:36:19;18.40;68.60
24144;DHT22;12307;50.828;6.080;2023-11-21T05:38:45;18.40;68.60
24144;DHT22;12307;50.828;6.080;2023-11-21T05:41:11;18.40;68.60
24144;DHT22;12307;50.828;6.080;2023-11-21T05:43:38;18.40;68.60
24144;DHT22;12307;50.828;6.080;2023-11-21T05:46:05;18.40;68.60
24144;DHT22;12307;50.828;6.080;2023-11-21T05:48:33;18.40;68.70
24144;DHT22;12307;50.828;6.080;2023-11-21T05:50:59;18.40;68.60
24144;DHT22;12307;50.828;6.080;2023-11-21T05:53:27;18.40;68.60
24144;DHT22;12307;50.828;6.080;2023-11-21T05:55:52;18.40;68.70
24144;DHT22;12307;50.828;6.080;2023-11-21T05:58:18;18.40;68.60
24144;DHT22;12307;50.828;6.080;2023-11-21T06:00:44;18.40;68.60
24144;DHT22;12307;50.828;6.080;2023-11-21T06:03:09;18.40;68.60
24144;DHT22;12307;50.828;6.080;2023-11-21T06:05:37;18.40;68.60
24144;DHT22;12307;50.828;6.080;2023-11-21T06:08:03;18.40;68.60
24144;DHT22;12307;50.828;6.080;2023-11-21T06:10:29;18.40;68.60
24144;DHT22;12307;50.828;6.080;2023-11-21T06:12:55;18.40;68.60
24144;DHT22;12307;50.828;6.080;2023-11-21T06:15:20;18.40;68.70
24144;DHT22;12307;50.828;6.080;2023-11-21T06:17:48;18.40;68.60
24144;DHT22;12307;50.828;6.080;2023-11-21T06:20:20;18.40;68.70
24144;DHT22;12307;50.828;6.080;2023-11-21T06:22:49;18.40;68.60
24144;DHT22;12307;50.828;6.080;2023-11-21T06:25:16;18.40;68.60
24144;DHT22;12307;50.828;6.080;2023-11-21T06:27:44;18.40;68.60
24144;DHT22;12307;50.828;6.080;2023-11-21T06:30:11;18.40;68.60
24144;DHT22;12307;50.828;6.080;2023-11-21T06:32:38;18.40;68.70
24144;DHT22;12307;50.828;6.080;2023-11-21T06:35:04;18.40;68.70
24144;DHT22;12307;50.828;6.080;2023-11-21T06:37:31;18.40;68.60
24144;DHT22;12307;50.828;6.080;2023-11-21T06:39:59;18.40;68.60
24144;DHT22;12307;50.828;6.080;2023-11-21T06:42:25;18.40;68.60
24144;DHT22;12307;50.828;6.080;2023-11-21T06:44:51;18.40;68.60
24144;DHT22;12307;50.828;6.080;2023-11-21T06:47:22;18.40;68.60
24144;DHT22;12307;50.828;6.080;2023-11-21T06:49:50;18.40;68.60
24144;DHT22;12307;50.828;6.080;2023-11-21T06:52:16;18.40;68.60
24144;DHT22;12307;50.828;6.080;2023-11-21T06:54:42;18.40;68.60
24144;DHT22;12307;50.828;6.080;2023-11-21T06:57:09;18.40;68.60
24144;DHT22;12307;50.828;6.080;2023-11-21T06:59:35;18.40;68.60
24144;DHT22;12307;50.828;6.080;2023-11-21T07:02:01;18.40;68.60
24144;DHT22;12307;50.828;6.080;2023-11-21T07:04:27;18.40;68.60
24144;DHT22;12307;50.828;6.080;2023-11-21T07:06:53;18.40;68.60
24144;DHT22;12307;50.828;6.080;2023-11-21T07:09:19;18.40;68.60
24144;DHT22;12307;50.828;6.080;2023-11-21T07:11:47;18.40;68.60
24144;DHT22;12307;50.828;6.080;2023-11-21T07:14:15;18.40;68.60
24144;DHT22;12307;50.828;6.080;2023-11-21T07:16:42;18.40;68.60
24144;DHT22;12307;50.828;6.080;2023-11-21T07:19:08;18.40;68.70
24144;DHT22;12307;50.828;6.080;2023-11-21T07:21:36;18.40;68.70
24144;DHT22;12307;50.828;6.080;2023-11-21T07:24:02;18.40;68.60
24144;DHT22;12307;50.828;6.080;2023-11-21T07:26:29;18.40;68.60
24144;DHT22;12307;50.828;6.080;2023-11-21T07:28:55;18.40;68.70
24144;DHT22;12307;50.828;6.080;2023-11-21T07:31:23;18.40;68.60
24144;DHT22;12307;50.828;6.080;2023-11-21T07:33:50;18.40;68.70
24144;DHT22;12307;50.828;6.080;2023-11-21T07:36:16;18.40;68.70
24144;DHT22;12307;50.828;6.080;2023-11-21T07:38:44;18.40;68.70
24144;DHT22;12307;50.828;6.080;2023-11-21T07:41:10;18.40;68.80
24144;DHT22;12307;50.828;6.080;2023-11-21T07:43:37;18.40;68.80
24144;DHT22;12307;50.828;6.080;2023-11-21T07:46:03;18.40;68.70
24144;DHT22;12307;50.828;6.080;2023-11-21T07:48:30;18.40;68.70
24144;DHT22;12307;50.828;6.080;2023-11-21T07:50:56;18.40;68.70
24144;DHT22;12307;50.828;6.080;2023-11-21T07:53:23;18.50;68.80
24144;DHT22;12307;50.828;6.080;2023-11-21T07:55:50;18.50;68.80
24144;DHT22;12307;50.828;6.080;2023-11-21T07:58:16;18.50;68.80
24144;DHT22;12307;50.828;6.080;2023-11-21T08:00:42;18.50;68.80
24144;DHT22;12307;50.828;6.080;2023-11-21T08:03:07;18.50;68.80
24144;DHT22;12307;50.828;6.080;2023-11-21T08:05:34;18.50;68.80
24144;DHT22;12307;50.828;6.080;2023-11-21T08:08:00;18.50;68.90
24144;DHT22;12307;50.828;6.080;2023-11-21T08:10:26;18.50;68.80
24144;DHT22;12307;50.828;6.080;2023-11-21T08:12:52;18.50;68.90
24144;DHT22;12307;50.828;6.080;2023-11-21T08:15:19;18.40;68.80
24144;DHT22;12307;50.828;6.080;2023-11-21T08:17:46;18.50;68.80
24144;DHT22;12307;50.828;6.080;2023-11-21T08:20:12;18.50;68.80
24144;DHT22;12307;50.828;6.080;2023-11-21T08:22:39;18.50;68.60
24144;DHT22;12307;50.828;6.080;2023-11-21T08:25:07;18.50;68.60
24144;DHT22;12307;50.828;6.080;2023-11-21T08:27:33;18.50;68.50
24144;DHT22;12307;50.828;6.080;2023-11-21T08:30:00;18.50;68.40
24144;DHT22;12307;50.828;6.080;2023-11-21T08:32:25;18.50;68.40
24144;DHT22;12307;50.828;6.080;2023-11-21T08:34:51;18.50;68.40
24144;DHT22;12307;50.828;6.080;2023-11-21T08:37:17;18.60;68.30
24144;DHT22;12307;50.828;6.080;2023-11-21T08:39:44;18.50;68.20
24144;DHT22;12307;50.828;6.080;2023-11-21T08:42:10;18.60;68.20
24144;DHT22;12307;50.828;6.080;2023-11-21T08:44:36;18.60;68.20
24144;DHT22;12307;50.828;6.080;2023-11-21T08:47:02;18.60;68.10
24144;DHT22;12307;50.828;6.080;2023-11-21T08:49:30;18.60;68.10
24144;DHT22;12307;50.828;6.080;2023-11-21T08:51:56;18.60;68.10
24144;DHT22;12307;50.828;6.080;2023-11-21T08:54:23;18.60;68.10
24144;DHT22;12307;50.828;6.080;2023-11-21T08:56:50;18.60;68.10
24144;DHT22;12307;50.828;6.080;2023-11-21T08:59:15;18.60;68.10
24144;DHT22;12307;50.828;6.080;2023-11-21T09:01:41;18.60;68.10
24144;DHT22;12307;50.828;6.080;2023-11-21T09:04:07;18.60;68.10
24144;DHT22;12307;50.828;6.080;2023-11-21T09:06:33;18.60;68.10
24144;DHT22;12307;50.828;6.080;2023-11-21T09:08:59;18.60;68.00
24144;DHT22;12307;50.828;6.080;2023-11-21T09:11:25;18.60;68.10
24144;DHT22;12307;50.828;6.080;2023-11-21T09:13:54;18.60;68.00
24144;DHT22;12307;50.828;6.080;2023-11-21T09:16:19;18.60;68.00
24144;DHT22;12307;50.828;6.080;2023-11-21T09:18:45;18.70;68.10
24144;DHT22;12307;50.828;6.080;2023-11-21T09:21:11;18.60;68.00
24144;DHT22;12307;50.828;6.080;2023-11-21T09:23:36;18.60;68.00
24144;DHT22;12307;50.828;6.080;2023-11-21T09:26:02;18.70;68.10
24144;DHT22;12307;50.828;6.080;2023-11-21T09:28:28;18.70;68.10
24144;DHT22;12307;50.828;6.080;2023-11-21T09:30:55;18.70;68.10
24144;DHT22;12307;50.828;6.080;2023-11-21T09:33:21;18.70;68.00
24144;DHT22;12307;50.828;6.080;2023-11-21T09:35:47;18.70;68.00
24144;DHT22;12307;50.828;6.080;2023-11-21T09:38:14;18.70;68.00
24144;DHT22;12307;50.828;6.080;2023-11-21T09:40:39;18.70;68.00
24144;DHT22;12307;50.828;6.080;2023-11-21T09:43:07;18.70;68.00
24144;DHT22;12307;50.828;6.080;2023-11-21T09:45:35;18.80;68.10
24144;DHT22;12307;50.828;6.080;2023-11-21T09:48:02;18.70;67.90
24144;DHT22;12307;50.828;6.080;2023-11-21T09:50:28;18.70;67.90
24144;DHT22;12307;50.828;6.080;2023-11-21T09:52:57;18.80;68.00
24144;DHT22;12307;50.828;6.080;2023-11-21T09:55:24;18.70;67.90
24144;DHT22;12307;50.828;6.080;2023-11-21T09:57:52;18.70;67.90
24144;DHT22;12307;50.828;6.080;2023-11-21T10:00:19;18.70;67.90
24144;DHT22;12307;50.828;6.080;2023-11-21T10:02:49;18.70;67.90
24144;DHT22;12307;50.828;6.080;2023-11-21T10:05:17;18.70;67.90
24144;DHT22;12307;50.828;6.080;2023-11-21T10:07:43;18.70;67.90
24144;DHT22;12307;50.828;6.080;2023-11-21T10:10:10;18.70;67.80
24144;DHT22;12307;50.828;6.080;2023-11-21T10:12:37;18.70;67.70
24144;DHT22;12307;50.828;6.080;2023-11-21T10:15:07;18.70;67.70
24144;DHT22;12307;50.828;6.080;2023-11-21T10:17:36;18.80;67.70
24144;DHT22;12307;50.828;6.080;2023-11-21T10:20:09;18.90;67.60
24144;DHT22;12307;50.828;6.080;2023-11-21T10:22:39;18.90;67.60
24144;DHT22;12307;50.828;6.080;2023-11-21T10:25:07;18.90;67.40
24144;DHT22;12307;50.828;6.080;2023-11-21T10:27:33;18.90;67.40
24144;DHT22;12307;50.828;6.080;2023-11-21T10:30:00;19.00;67.30
24144;DHT22;12307;50.828;6.080;2023-11-21T10:32:28;19.00;67.30
24144;DHT22;12307;50.828;6.080;2023-11-21T10:34:56;19.00;67.20
24144;DHT22;12307;50.828;6.080;2023-11-21T10:37:23;19.00;67.20
24144;DHT22;12307;50.828;6.080;2023-11-21T10:39:50;19.00;67.10
24144;DHT22;12307;50.828;6.080;2023-11-21T10:42:18;19.10;67.10
24144;DHT22;12307;50.828;6.080;2023-11-21T10:44:46;19.10;67.10
24144;DHT22;12307;50.828;6.080;2023-11-21T10:47:11;19.10;67.10
24144;DHT22;12307;50.828;6.080;2023-11-21T10:49:37;19.10;67.00
24144;DHT22;12307;50.828;6.080;2023-11-21T10:52:04;19.10;67.00
24144;DHT22;12307;50.828;6.080;2023-11-21T10:54:30;19.00;67.00
24144;DHT22;12307;50.828;6.080;2023-11-21T10:56:59;19.10;67.00
24144;DHT22;12307;50.828;6.080;2023-11-21T10:59:27;19.00;66.90
24144;DHT22;12307;50.828;6.080;2023-11-21T11:01:54;19.10;67.00
24144;DHT22;12307;50.828;6.080;2023-11-21T11:04:22;19.10;66.90
24144;DHT22;12307;50.828;6.080;2023-11-21T11:06:54;19.10;66.90
24144;DHT22;12307;50.828;6.080;2023-11-21T11:09:20;19.10;66.90
24144;DHT22;12307;50.828;6.080;2023-11-21T11:11:46;19.20;66.90
24144;DHT22;12307;50.828;6.080;2023-11-21T11:14:13;19.20;66.80
24144;DHT22;12307;50.828;6.080;2023-11-21T11:16:40;19.20;66.90
24144;DHT22;12307;50.828;6.080;2023-11-21T11:19:09;19.10;66.80
24144;DHT22;12307;50.828;6.080;2023-11-21T11:21:43;19.20;66.80
24144;DHT22;12307;50.828;6.080;2023-11-21T11:27:21;19.20;66.80
24144;DHT22;12307;50.828;6.080;2023-11-21T11:30:06;19.20;66.80
24144;DHT22;12307;50.828;6.080;2023-11-21T11:32:43;19.20;66.80
24144;DHT22;12307;50.828;6.080;2023-11-21T11:35:19;19.20;66.80
24144;DHT22;12307;50.828;6.080;2023-11-21T11:37:49;19.20;66.80
24144;DHT22;12307;50.828;6.080;2023-11-21T11:40:15;19.20;66.70
24144;DHT22;12307;50.828;6.080;2023-11-21T11:42:55;19.20;66.70
24144;DHT22;12307;50.828;6.080;2023-11-21T11:45:25;19.20;66.70
24144;DHT22;12307;50.828;6.080;2023-11-21T11:47:57;19.20;66.70
24144;DHT22;12307;50.828;6.080;2023-11-21T11:50:23;19.20;66.70
24144;DHT22;12307;50.828;6.080;2023-11-21T11:52:51;19.20;66.70
24144;DHT22;12307;50.828;6.080;2023-11-21T11:55:18;19.20;67.00
24144;DHT22;12307;50.828;6.080;2023-11-21T11:57:45;19.20;66.70
24144;DHT22;12307;50.828;6.080;2023-11-21T12:00:17;19.20;66.70
24144;DHT22;12307;50.828;6.080;2023-11-21T12:02:48;19.20;66.70
24144;DHT22;12307;50.828;6.080;2023-11-21T12:05:15;19.20;66.70
24144;DHT22;12307;50.828;6.080;2023-11-21T12:07:45;19.20;66.70
24144;DHT22;12307;50.828;6.080;2023-11-21T12:10:14;19.20;66.60
24144;DHT22;12307;50.828;6.080;2023-11-21T12:12:48;19.20;66.60
24144;DHT22;12307;50.828;6.080;2023-11-21T12:15:14;19.30;66.60
24144;DHT22;12307;50.828;6.080;2023-11-21T12:17:40;19.30;66.60
24144;DHT22;12307;50.828;6.080;2023-11-21T12:20:09;19.30;66.60
24144;DHT22;12307;50.828;6.080;2023-11-21T12:22:42;19.30;66.50
24144;DHT22;12307;50.828;6.080;2023-11-21T12:25:08;19.30;66.50
24144;DHT22;12307;50.828;6.080;2023-11-21T12:27:34;19.30;66.50
24144;DHT22;12307;50.828;6.080;2023-11-21T12:30:00;19.30;66.50
24144;DHT22;12307;50.828;6.080;2023-11-21T12:32:26;19.30;66.50
24144;DHT22;12307;50.828;6.080;2023-11-21T12:34:52;19.30;66.50
24144;DHT22;12307;50.828;6.080;2023-11-21T12:37:19;19.30;66.50
24144;DHT22;12307;50.828;6.080;2023-11-21T12:39:45;19.30;66.60
24144;DHT22;12307;50.828;6.080;2023-11-21T12:42:10;19.30;66.50
24144;DHT22;12307;50.828;6.080;2023-11-21T12:44:36;19.30;66.50
24144;DHT22;12307;50.828;6.080;2023-11-21T12:47:06;19.30;66.50
24144;DHT22;12307;50.828;6.080;2023-11-21T12:49:33;19.30;66.50
24144;DHT22;12307;50.828;6.080;2023-11-21T12:51:59;19.30;66.50
24144;DHT22;12307;50.828;6.080;2023-11-21T12:54:26;19.30;66.60
24144;DHT22;12307;50.828;6.080;2023-11-21T12:56:53;19.30;66.60
24144;DHT22;12307;50.828;6.080;2023-11-21T12:59:20;19.20;66.50
24144;DHT22;12307;50.828;6.080;2023-11-21T13:01:47;19.20;66.60
24144;DHT22;12307;50.828;6.080;2023-11-21T13:04:13;19.20;66.60
24144;DHT22;12307;50.828;6.080;2023-11-21T13:06:38;19.20;66.70
24144;DHT22;12307;50.828;6.080;2023-11-21T13:09:06;19.20;66.70
24144;DHT22;12307;50.828;6.080;2023-11-21T13:11:35;19.20;66.70
24144;DHT22;12307;50.828;6.080;2023-11-21T13:14:02;19.20;66.70
24144;DHT22;12307;50.828;6.080;2023-11-21T13:16:29;19.20;66.80
24144;DHT22;12307;50.828;6.080;2023-11-21T13:18:55;19.20;67.30
24144;DHT22;12307;50.828;6.080;2023-11-21T13:21:21;19.20;66.80
24144;DHT22;12307;50.828;6.080;2023-11-21T13:23:48;19.20;66.90
24144;DHT22;12307;50.828;6.080;2023-11-21T13:26:16;19.20;66.90
24144;DHT22;12307;50.828;6.080;2023-11-21T13:28:43;19.20;67.00
24144;DHT22;12307;50.828;6.080;2023-11-21T13:31:13;19.20;67.00
24144;DHT22;12307;50.828;6.080;2023-11-21T13:33:52;19.20;67.10
24144;DHT22;12307;50.828;6.080;2023-11-21T13:36:22;19.20;67.00
24144;DHT22;12307;50.828;6.080;2023-11-21T13:38:49;19.20;67.10
24144;DHT22;12307;50.828;6.080;2023-11-21T13:41:15;19.20;67.10
24144;DHT22;12307;50.828;6.080;2023-11-21T13:43:44;19.20;67.10
24144;DHT22;12307;50.828;6.080;2023-11-21T13:46:14;19.10;67.10
24144;DHT22;12307;50.828;6.080;2023-11-21T13:48:42;19.10;67.20
24144;DHT22;12307;50.828;6.080;2023-11-21T13:51:14;19.10;67.20
24144;DHT22;12307;50.828;6.080;2023-11-21T13:53:43;19.10;67.20
24144;DHT22;12307;50.828;6.080;2023-11-21T13:56:09;19.10;67.30
24144;DHT22;12307;50.828;6.080;2023-11-21T13:58:35;19.10;67.30
24144;DHT22;12307;50.828;6.080;2023-11-21T14:01:17;19.10;67.30
24144;DHT22;12307;50.828;6.080;2023-11-21T14:04:08;19.10;67.40
24144;DHT22;12307;50.828;6.080;2023-11-21T14:06:43;19.10;67.40
24144;DHT22;12307;50.828;6.080;2023-11-21T14:09:15;19.10;67.40
24144;DHT22;12307;50.828;6.080;2023-11-21T14:11:49;19.10;67.50
24144;DHT22;12307;50.828;6.080;2023-11-21T14:14:15;19.10;67.50
24144;DHT22;12307;50.828;6.080;2023-11-21T14:16:44;19.10;67.60
24144;DHT22;12307;50.828;6.080;2023-11-21T14:19:10;19.10;67.60
24144;DHT22;12307;50.828;6.080;2023-11-21T14:21:42;19.10;67.60
24144;DHT22;12307;50.828;6.080;2023-11-21T14:24:09;19.10;67.70
24144;DHT22;12307;50.828;6.080;2023-11-21T14:26:34;19.10;67.70
24144;DHT22;12307;50.828;6.080;2023-11-21T14:29:00;19.10;67.70
24144;DHT22;12307;50.828;6.080;2023-11-21T14:31:26;19.10;67.70
24144;DHT22;12307;50.828;6.080;2023-11-21T14:33:57;19.00;67.70
24144;DHT22;12307;50.828;6.080;2023-11-21T14:36:22;19.00;67.70
24144;DHT22;12307;50.828;6.080;2023-11-21T14:38:49;19.00;67.70
24144;DHT22;12307;50.828;6.080;2023-11-21T14:41:15;19.00;67.80
24144;DHT22;12307;50.828;6.080;2023-11-21T14:43:41;19.00;67.80
24144;DHT22;12307;50.828;6.080;2023-11-21T14:46:07;19.00;67.80
24144;DHT22;12307;50.828;6.080;2023-11-21T14:48:35;19.00;67.90
24144;DHT22;12307;50.828;6.080;2023-11-21T14:51:14;19.00;68.00
24144;DHT22;12307;50.828;6.080;2023-11-21T14:53:58;19.00;68.00
24144;DHT22;12307;50.828;6.080;2023-11-21T14:56:36;19.00;68.00
24144;DHT22;12307;50.828;6.080;2023-11-21T14:59:04;19.00;68.00
24144;DHT22;12307;50.828;6.080;2023-11-21T15:01:41;19.00;68.10
24144;DHT22;12307;50.828;6.080;2023-11-21T15:04:20;19.00;68.10
24144;DHT22;12307;50.828;6.080;2023-11-21T15:06:58;19.00;68.10
24144;DHT22;12307;50.828;6.080;2023-11-21T15:09:25;19.00;68.10
24144;DHT22;12307;50.828;6.080;2023-11-21T15:12:02;19.00;68.10
24144;DHT22;12307;50.828;6.080;2023-11-21T15:14:41;19.00;68.10
24144;DHT22;12307;50.828;6.080;2023-11-21T15:17:08;19.00;68.10
24144;DHT22;12307;50.828;6.080;2023-11-21T15:19:34;19.00;68.10
24144;DHT22;12307;50.828;6.080;2023-11-21T15:22:02;19.00;68.10
24144;DHT22;12307;50.828;6.080;2023-11-21T15:24:28;19.00;68.10
24144;DHT22;12307;50.828;6.080;2023-11-21T15:26:54;19.00;68.10
24144;DHT22;12307;50.828;6.080;2023-11-21T15:29:20;19.00;68.10
24144;DHT22;12307;50.828;6.080;2023-11-21T15:31:47;19.00;68.20
24144;DHT22;12307;50.828;6.080;2023-11-21T15:34:14;19.00;68.20